createdAt,value
2022-08-26T00:09:39.013Z,18.80
2022-08-26T00:19:36.971Z,18.73
2022-08-26T00:29:37.470Z,18.52
2022-08-26T00:39:37.284Z,18.44
2022-08-26T00:49:37.439Z,18.37
2022-08-26T00:59:38.928Z,18.31
2022-08-26T01:09:39.728Z,18.18
2022-08-26T01:19:37.907Z,18.18
2022-08-26T01:29:38.127Z,18.42
2022-08-26T01:39:40.241Z,18.82
2022-08-26T01:49:38.480Z,18.90
2022-08-26T01:59:38.660Z,18.39
2022-08-26T02:09:41.364Z,18.28
2022-08-26T02:19:38.955Z,18.15
2022-08-26T02:29:39.104Z,18.00
2022-08-26T02:39:39.266Z,17.99
2022-08-26T02:49:39.428Z,18.02
2022-08-26T02:59:39.723Z,18.07
2022-08-26T03:09:39.773Z,17.82
2022-08-26T03:19:39.941Z,17.88
2022-08-26T03:29:40.121Z,17.64
2022-08-26T03:39:40.258Z,17.71
2022-08-26T03:49:40.469Z,17.47
2022-08-26T03:59:41.310Z,17.53
2022-08-26T04:09:40.771Z,17.33
2022-08-26T04:19:41.031Z,17.18
2022-08-26T04:29:41.079Z,17.25
2022-08-26T04:39:41.253Z,17.30
2022-08-26T04:49:41.456Z,17.26
2022-08-26T04:59:41.645Z,17.46
2022-08-26T05:09:41.828Z,17.79
2022-08-26T05:19:42.753Z,18.22
2022-08-26T05:29:42.106Z,18.70
2022-08-26T05:39:43.417Z,19.14
2022-08-26T05:49:43.743Z,19.32
2022-08-26T05:59:43.642Z,19.53
2022-08-26T06:09:42.829Z,19.86
2022-08-26T06:19:43.010Z,20.06
2022-08-26T06:29:43.177Z,20.25
2022-08-26T06:39:43.335Z,20.50
2022-08-26T06:49:44.288Z,20.84
2022-08-26T06:59:43.638Z,21.13
2022-08-26T07:09:43.797Z,21.34
2022-08-26T07:19:43.959Z,21.66
2022-08-26T07:29:44.119Z,21.88
2022-08-26T07:39:45.356Z,22.14
2022-08-26T07:49:44.767Z,22.41
2022-08-26T07:59:44.686Z,22.89
2022-08-26T08:09:44.967Z,23.17
2022-08-26T08:19:45.035Z,23.87
2022-08-26T08:29:45.195Z,24.10
2022-08-26T08:39:45.361Z,24.50
2022-08-26T08:49:45.522Z,24.83
2022-08-26T08:59:45.748Z,25.47
2022-08-26T09:09:45.867Z,28.01
2022-08-26T09:19:46.063Z,29.49
2022-08-26T09:29:46.241Z,30.02
2022-08-26T09:39:46.530Z,26.73
2022-08-26T09:49:46.597Z,25.82
2022-08-26T09:59:46.790Z,25.53
2022-08-26T10:09:46.970Z,25.07
2022-08-26T10:19:56.974Z,24.71
2022-08-26T10:29:48.271Z,24.79
2022-08-26T10:39:47.377Z,24.98
2022-08-26T10:49:47.515Z,24.92
2022-08-26T10:59:47.848Z,25.35
2022-08-26T11:09:47.837Z,25.87
2022-08-26T11:20:00.309Z,26.58
2022-08-26T11:29:49.296Z,27.35
2022-08-26T11:39:54.044Z,28.48
2022-08-26T11:49:49.509Z,29.28
2022-08-26T11:59:48.723Z,29.87
2022-08-26T12:09:48.899Z,30.29
2022-08-26T12:19:49.065Z,30.72
2022-08-26T12:29:49.222Z,31.55
2022-08-26T12:39:49.462Z,31.46
2022-08-26T12:49:49.563Z,30.91
2022-08-26T12:59:49.715Z,29.63
2022-08-26T13:09:49.904Z,30.56
2022-08-26T13:19:50.087Z,31.42
2022-08-26T13:29:50.484Z,30.65
2022-08-26T13:39:50.477Z,30.84
2022-08-26T13:49:50.564Z,30.81
2022-08-26T13:59:51.009Z,31.36
2022-08-26T14:09:50.987Z,32.36
2022-08-26T14:19:51.048Z,32.81
2022-08-26T14:29:51.216Z,32.10
2022-08-26T14:39:51.438Z,32.66
2022-08-26T14:49:51.509Z,33.49
2022-08-26T14:59:51.704Z,29.08
2022-08-26T15:09:52.038Z,27.91
2022-08-26T15:19:52.098Z,27.43
2022-08-26T15:29:52.268Z,27.14
2022-08-26T15:39:52.458Z,26.89
2022-08-26T15:49:52.634Z,26.43
2022-08-26T15:59:52.805Z,26.17
2022-08-26T16:09:54.131Z,25.79
2022-08-26T16:19:53.136Z,25.54
2022-08-26T16:29:53.286Z,25.32
2022-08-26T16:39:53.670Z,25.25
2022-08-26T16:49:53.897Z,24.94
2022-08-26T16:59:53.795Z,24.31
2022-08-26T17:09:54.144Z,23.76
2022-08-26T17:19:53.983Z,23.40
2022-08-26T17:29:54.138Z,23.09
2022-08-26T17:39:54.436Z,22.80
2022-08-26T17:49:54.496Z,22.41
2022-08-26T17:59:54.659Z,22.16
2022-08-26T18:09:54.886Z,22.13
2022-08-26T18:19:55.062Z,22.10
2022-08-26T18:29:55.243Z,21.95
2022-08-26T18:39:55.433Z,20.42
2022-08-26T18:49:55.635Z,19.32
2022-08-26T18:59:55.819Z,18.73
2022-08-26T19:09:56.337Z,18.43
2022-08-26T19:19:56.222Z,18.39
2022-08-26T19:29:56.288Z,18.33
2022-08-26T19:39:56.550Z,18.40
2022-08-26T19:49:56.628Z,18.37
2022-08-26T19:59:56.820Z,18.42
2022-08-26T20:09:57.007Z,18.37
2022-08-26T20:19:57.198Z,18.04
2022-08-26T20:29:57.534Z,18.10
2022-08-26T20:39:57.652Z,17.88
2022-08-26T20:49:57.801Z,17.69
2022-08-26T20:59:57.992Z,17.73
2022-08-26T21:09:58.166Z,17.53
2022-08-26T21:19:58.333Z,17.53
2022-08-26T21:29:58.614Z,17.48
2022-08-26T21:39:58.759Z,17.44
2022-08-26T21:49:58.860Z,17.43
2022-08-26T21:59:58.929Z,17.36
2022-08-26T22:09:59.106Z,17.30
2022-08-26T22:19:59.262Z,17.38
2022-08-26T22:29:59.408Z,17.63
2022-08-26T22:39:59.622Z,17.79
2022-08-26T22:49:59.712Z,17.74
2022-08-26T22:59:59.880Z,17.76
2022-08-26T23:10:00.065Z,17.88
2022-08-26T23:20:00.231Z,17.82
2022-08-26T23:30:00.722Z,17.82
2022-08-26T23:40:00.727Z,17.70
2022-08-26T23:50:00.695Z,17.57
